sensor_id;sensor_type;location;lat;lon;timestamp;P1;durP1;ratioP1;P2;durP2;ratioP2
53879;SDS011;39791;53.184;5.486;2023-05-07T00:00:33;30.77;;;26.58;;
53879;SDS011;39791;53.184;5.486;2023-05-07T00:02:59;30.38;;;24.65;;
53879;SDS011;39791;53.184;5.486;2023-05-07T00:05:25;33.05;;;25.92;;
53879;SDS011;39791;53.184;5.486;2023-05-07T00:07:50;31.75;;;26.13;;
53879;SDS011;39791;53.184;5.486;2023-05-07T00:10:17;27.15;;;24.13;;
53879;SDS011;39791;53.184;5.486;2023-05-07T00:12:43;28.48;;;24.75;;
53879;SDS011;39791;53.184;5.486;2023-05-07T00:15:09;26.25;;;23.05;;
53879;SDS011;39791;53.184;5.486;2023-05-07T00:17:35;29.75;;;25.35;;
53879;SDS011;39791;53.184;5.486;2023-05-07T00:20:01;29.90;;;25.00;;
53879;SDS011;39791;53.184;5.486;2023-05-07T00:22:28;30.48;;;25.17;;
53879;SDS011;39791;53.184;5.486;2023-05-07T00:24:55;27.33;;;24.13;;
53879;SDS011;39791;53.184;5.486;2023-05-07T00:27:20;27.27;;;24.23;;
53879;SDS011;39791;53.184;5.486;2023-05-07T00:29:46;27.60;;;24.70;;
53879;SDS011;39791;53.184;5.486;2023-05-07T00:32:12;27.42;;;22.58;;
53879;SDS011;39791;53.184;5.486;2023-05-07T00:34:37;29.15;;;25.98;;
53879;SDS011;39791;53.184;5.486;2023-05-07T00:37:04;26.92;;;23.33;;
53879;SDS011;39791;53.184;5.486;2023-05-07T00:39:32;23.30;;;18.55;;
53879;SDS011;39791;53.184;5.486;2023-05-07T00:41:58;27.73;;;23.05;;
53879;SDS011;39791;53.184;5.486;2023-05-07T00:44:23;26.27;;;21.27;;
53879;SDS011;39791;53.184;5.486;2023-05-07T00:46:50;26.13;;;23.35;;
53879;SDS011;39791;53.184;5.486;2023-05-07T00:49:15;27.73;;;23.27;;
53879;SDS011;39791;53.184;5.486;2023-05-07T00:51:41;28.67;;;23.50;;
53879;SDS011;39791;53.184;5.486;2023-05-07T00:54:07;24.95;;;20.98;;
53879;SDS011;39791;53.184;5.486;2023-05-07T00:56:34;19.70;;;17.58;;
53879;SDS011;39791;53.184;5.486;2023-05-07T00:59:01;29.25;;;21.92;;
53879;SDS011;39791;53.184;5.486;2023-05-07T01:01:28;27.98;;;22.27;;
53879;SDS011;39791;53.184;5.486;2023-05-07T01:03:53;25.58;;;20.50;;
53879;SDS011;39791;53.184;5.486;2023-05-07T01:06:20;25.75;;;19.20;;
53879;SDS011;39791;53.184;5.486;2023-05-07T01:08:48;27.27;;;21.30;;
53879;SDS011;39791;53.184;5.486;2023-05-07T01:11:15;29.98;;;23.27;;
53879;SDS011;39791;53.184;5.486;2023-05-07T01:13:42;27.85;;;22.63;;
53879;SDS011;39791;53.184;5.486;2023-05-07T01:16:08;27.10;;;20.92;;
53879;SDS011;39791;53.184;5.486;2023-05-07T01:18:34;23.17;;;20.63;;
53879;SDS011;39791;53.184;5.486;2023-05-07T01:21:00;33.97;;;25.63;;
53879;SDS011;39791;53.184;5.486;2023-05-07T01:23:28;26.98;;;23.60;;
53879;SDS011;39791;53.184;5.486;2023-05-07T01:25:55;24.98;;;22.00;;
53879;SDS011;39791;53.184;5.486;2023-05-07T01:28:21;25.15;;;21.60;;
53879;SDS011;39791;53.184;5.486;2023-05-07T01:30:49;28.77;;;24.20;;
53879;SDS011;39791;53.184;5.486;2023-05-07T01:33:18;26.70;;;22.05;;
53879;SDS011;39791;53.184;5.486;2023-05-07T01:35:47;24.30;;;18.52;;
53879;SDS011;39791;53.184;5.486;2023-05-07T01:38:15;27.55;;;21.42;;
53879;SDS011;39791;53.184;5.486;2023-05-07T01:40:42;26.45;;;22.98;;
53879;SDS011;39791;53.184;5.486;2023-05-07T01:43:08;25.95;;;22.20;;
53879;SDS011;39791;53.184;5.486;2023-05-07T01:45:35;30.63;;;23.02;;
53879;SDS011;39791;53.184;5.486;2023-05-07T01:48:05;28.50;;;22.45;;
53879;SDS011;39791;53.184;5.486;2023-05-07T01:50:32;27.13;;;23.70;;
53879;SDS011;39791;53.184;5.486;2023-05-07T01:52:58;20.67;;;18.48;;
53879;SDS011;39791;53.184;5.486;2023-05-07T01:55:24;23.80;;;20.20;;
53879;SDS011;39791;53.184;5.486;2023-05-07T01:57:50;25.05;;;20.40;;
53879;SDS011;39791;53.184;5.486;2023-05-07T02:00:15;26.48;;;21.65;;
53879;SDS011;39791;53.184;5.486;2023-05-07T02:02:42;30.23;;;23.83;;
53879;SDS011;39791;53.184;5.486;2023-05-07T02:05:08;27.13;;;21.83;;
53879;SDS011;39791;53.184;5.486;2023-05-07T02:07:33;27.15;;;22.60;;
53879;SDS011;39791;53.184;5.486;2023-05-07T02:09:59;25.45;;;21.17;;
53879;SDS011;39791;53.184;5.486;2023-05-07T02:12:25;27.45;;;23.00;;
53879;SDS011;39791;53.184;5.486;2023-05-07T02:14:50;27.10;;;23.63;;
53879;SDS011;39791;53.184;5.486;2023-05-07T02:17:16;28.17;;;22.45;;
53879;SDS011;39791;53.184;5.486;2023-05-07T02:19:41;28.05;;;21.70;;
53879;SDS011;39791;53.184;5.486;2023-05-07T02:22:07;24.38;;;19.98;;
53879;SDS011;39791;53.184;5.486;2023-05-07T02:24:34;27.70;;;22.17;;
53879;SDS011;39791;53.184;5.486;2023-05-07T02:26:59;29.52;;;22.73;;
53879;SDS011;39791;53.184;5.486;2023-05-07T02:29:25;27.38;;;22.40;;
53879;SDS011;39791;53.184;5.486;2023-05-07T02:31:51;26.30;;;21.13;;
53879;SDS011;39791;53.184;5.486;2023-05-07T02:34:18;26.85;;;21.83;;
53879;SDS011;39791;53.184;5.486;2023-05-07T02:36:44;21.30;;;18.52;;
53879;SDS011;39791;53.184;5.486;2023-05-07T02:39:10;26.77;;;22.83;;
53879;SDS011;39791;53.184;5.486;2023-05-07T02:41:37;29.13;;;22.60;;
53879;SDS011;39791;53.184;5.486;2023-05-07T02:44:02;24.33;;;21.17;;
53879;SDS011;39791;53.184;5.486;2023-05-07T02:46:28;26.17;;;22.80;;
53879;SDS011;39791;53.184;5.486;2023-05-07T02:48:53;27.33;;;22.83;;
53879;SDS011;39791;53.184;5.486;2023-05-07T02:51:19;26.10;;;22.98;;
53879;SDS011;39791;53.184;5.486;2023-05-07T02:53:46;31.48;;;23.90;;
53879;SDS011;39791;53.184;5.486;2023-05-07T02:56:11;25.95;;;23.02;;
53879;SDS011;39791;53.184;5.486;2023-05-07T02:58:37;26.05;;;23.02;;
53879;SDS011;39791;53.184;5.486;2023-05-07T03:01:04;27.23;;;22.35;;
53879;SDS011;39791;53.184;5.486;2023-05-07T03:03:30;49.05;;;27.20;;
53879;SDS011;39791;53.184;5.486;2023-05-07T03:05:56;29.65;;;25.15;;
53879;SDS011;39791;53.184;5.486;2023-05-07T03:08:22;30.70;;;25.23;;
53879;SDS011;39791;53.184;5.486;2023-05-07T03:10:47;29.77;;;25.05;;
53879;SDS011;39791;53.184;5.486;2023-05-07T03:13:13;28.27;;;23.98;;
53879;SDS011;39791;53.184;5.486;2023-05-07T03:15:38;29.60;;;24.60;;
53879;SDS011;39791;53.184;5.486;2023-05-07T03:18:04;33.15;;;26.27;;
53879;SDS011;39791;53.184;5.486;2023-05-07T03:20:30;34.88;;;26.60;;
53879;SDS011;39791;53.184;5.486;2023-05-07T03:22:56;30.80;;;26.30;;
53879;SDS011;39791;53.184;5.486;2023-05-07T03:25:21;32.65;;;26.63;;
53879;SDS011;39791;53.184;5.486;2023-05-07T03:27:47;35.72;;;27.63;;
53879;SDS011;39791;53.184;5.486;2023-05-07T03:30:13;36.75;;;29.80;;
53879;SDS011;39791;53.184;5.486;2023-05-07T03:32:38;30.85;;;26.25;;
53879;SDS011;39791;53.184;5.486;2023-05-07T03:35:04;34.95;;;28.85;;
53879;SDS011;39791;53.184;5.486;2023-05-07T03:37:30;32.58;;;26.77;;
53879;SDS011;39791;53.184;5.486;2023-05-07T03:39:55;36.35;;;29.40;;
53879;SDS011;39791;53.184;5.486;2023-05-07T03:42:21;33.95;;;27.35;;
53879;SDS011;39791;53.184;5.486;2023-05-07T03:44:47;34.90;;;29.52;;
53879;SDS011;39791;53.184;5.486;2023-05-07T03:47:12;35.55;;;30.00;;
53879;SDS011;39791;53.184;5.486;2023-05-07T03:49:38;36.28;;;30.35;;
53879;SDS011;39791;53.184;5.486;2023-05-07T03:52:04;34.55;;;29.65;;
53879;SDS011;39791;53.184;5.486;2023-05-07T03:54:30;39.55;;;29.10;;
53879;SDS011;39791;53.184;5.486;2023-05-07T03:56:56;32.45;;;28.50;;
53879;SDS011;39791;53.184;5.486;2023-05-07T03:59:21;33.80;;;29.80;;
53879;SDS011;39791;53.184;5.486;2023-05-07T04:01:47;36.95;;;31.05;;
53879;SDS011;39791;53.184;5.486;2023-05-07T04:04:13;34.67;;;28.30;;
53879;SDS011;39791;53.184;5.486;2023-05-07T04:06:39;37.15;;;29.55;;
53879;SDS011;39791;53.184;5.486;2023-05-07T04:09:05;37.58;;;30.95;;
53879;SDS011;39791;53.184;5.486;2023-05-07T04:11:31;37.05;;;31.13;;
53879;SDS011;39791;53.184;5.486;2023-05-07T04:13:57;39.10;;;32.53;;
53879;SDS011;39791;53.184;5.486;2023-05-07T04:16:22;35.60;;;31.05;;
53879;SDS011;39791;53.184;5.486;2023-05-07T04:18:48;36.30;;;32.17;;
53879;SDS011;39791;53.184;5.486;2023-05-07T04:21:20;36.67;;;30.52;;
53879;SDS011;39791;53.184;5.486;2023-05-07T04:23:46;37.50;;;31.00;;
53879;SDS011;39791;53.184;5.486;2023-05-07T04:26:13;37.35;;;32.92;;
53879;SDS011;39791;53.184;5.486;2023-05-07T04:28:38;39.45;;;33.88;;
53879;SDS011;39791;53.184;5.486;2023-05-07T04:31:05;36.72;;;31.30;;
53879;SDS011;39791;53.184;5.486;2023-05-07T04:33:31;31.20;;;27.88;;
53879;SDS011;39791;53.184;5.486;2023-05-07T04:35:57;37.05;;;32.42;;
53879;SDS011;39791;53.184;5.486;2023-05-07T04:38:27;35.35;;;29.85;;
53879;SDS011;39791;53.184;5.486;2023-05-07T04:40:56;38.50;;;32.90;;
53879;SDS011;39791;53.184;5.486;2023-05-07T04:43:23;39.47;;;32.40;;
53879;SDS011;39791;53.184;5.486;2023-05-07T04:45:49;38.22;;;32.88;;
53879;SDS011;39791;53.184;5.486;2023-05-07T04:48:16;40.85;;;34.97;;
53879;SDS011;39791;53.184;5.486;2023-05-07T04:50:44;43.20;;;34.25;;
53879;SDS011;39791;53.184;5.486;2023-05-07T04:53:12;41.47;;;35.20;;
53879;SDS011;39791;53.184;5.486;2023-05-07T04:55:37;44.95;;;37.00;;
53879;SDS011;39791;53.184;5.486;2023-05-07T04:58:03;39.47;;;33.47;;
53879;SDS011;39791;53.184;5.486;2023-05-07T05:00:29;40.53;;;32.65;;
53879;SDS011;39791;53.184;5.486;2023-05-07T05:02:55;38.83;;;32.30;;
53879;SDS011;39791;53.184;5.486;2023-05-07T05:05:21;39.80;;;32.70;;
53879;SDS011;39791;53.184;5.486;2023-05-07T05:07:47;40.38;;;33.78;;
53879;SDS011;39791;53.184;5.486;2023-05-07T05:10:12;38.88;;;31.20;;
53879;SDS011;39791;53.184;5.486;2023-05-07T05:12:38;40.20;;;33.70;;
53879;SDS011;39791;53.184;5.486;2023-05-07T05:15:03;42.00;;;31.77;;
53879;SDS011;39791;53.184;5.486;2023-05-07T05:17:30;43.40;;;34.50;;
53879;SDS011;39791;53.184;5.486;2023-05-07T05:19:56;50.20;;;35.40;;
53879;SDS011;39791;53.184;5.486;2023-05-07T05:22:21;43.22;;;36.67;;
53879;SDS011;39791;53.184;5.486;2023-05-07T05:24:47;41.80;;;33.45;;
53879;SDS011;39791;53.184;5.486;2023-05-07T05:27:12;44.13;;;36.35;;
53879;SDS011;39791;53.184;5.486;2023-05-07T05:29:38;45.35;;;34.70;;
53879;SDS011;39791;53.184;5.486;2023-05-07T05:32:03;41.15;;;34.05;;
53879;SDS011;39791;53.184;5.486;2023-05-07T05:34:29;43.67;;;37.00;;
53879;SDS011;39791;53.184;5.486;2023-05-07T05:36:55;48.92;;;37.88;;
53879;SDS011;39791;53.184;5.486;2023-05-07T05:39:20;49.08;;;39.72;;
53879;SDS011;39791;53.184;5.486;2023-05-07T05:41:48;46.67;;;38.70;;
53879;SDS011;39791;53.184;5.486;2023-05-07T05:44:13;47.83;;;38.20;;
53879;SDS011;39791;53.184;5.486;2023-05-07T05:46:39;46.92;;;39.35;;
53879;SDS011;39791;53.184;5.486;2023-05-07T05:49:04;51.55;;;39.88;;
53879;SDS011;39791;53.184;5.486;2023-05-07T05:51:30;42.05;;;34.58;;
53879;SDS011;39791;53.184;5.486;2023-05-07T05:53:56;45.47;;;37.25;;
53879;SDS011;39791;53.184;5.486;2023-05-07T05:56:21;46.88;;;35.70;;
53879;SDS011;39791;53.184;5.486;2023-05-07T05:58:47;50.95;;;39.67;;
53879;SDS011;39791;53.184;5.486;2023-05-07T06:01:12;49.63;;;39.90;;
53879;SDS011;39791;53.184;5.486;2023-05-07T06:03:38;49.83;;;37.85;;
53879;SDS011;39791;53.184;5.486;2023-05-07T06:06:03;51.40;;;41.10;;
53879;SDS011;39791;53.184;5.486;2023-05-07T06:08:29;51.60;;;43.08;;
53879;SDS011;39791;53.184;5.486;2023-05-07T06:10:55;51.05;;;40.92;;
53879;SDS011;39791;53.184;5.486;2023-05-07T06:13:21;48.90;;;38.30;;
53879;SDS011;39791;53.184;5.486;2023-05-07T06:15:47;52.65;;;41.30;;
53879;SDS011;39791;53.184;5.486;2023-05-07T06:18:13;50.80;;;38.00;;
53879;SDS011;39791;53.184;5.486;2023-05-07T06:20:39;52.30;;;43.67;;
53879;SDS011;39791;53.184;5.486;2023-05-07T06:23:04;53.42;;;40.97;;
53879;SDS011;39791;53.184;5.486;2023-05-07T06:25:30;52.20;;;42.22;;
53879;SDS011;39791;53.184;5.486;2023-05-07T06:27:56;53.40;;;42.47;;
53879;SDS011;39791;53.184;5.486;2023-05-07T06:30:21;53.97;;;41.15;;
53879;SDS011;39791;53.184;5.486;2023-05-07T06:32:47;54.95;;;44.05;;
53879;SDS011;39791;53.184;5.486;2023-05-07T06:35:12;50.50;;;37.58;;
53879;SDS011;39791;53.184;5.486;2023-05-07T06:37:38;58.42;;;45.53;;
53879;SDS011;39791;53.184;5.486;2023-05-07T06:40:05;51.40;;;42.65;;
53879;SDS011;39791;53.184;5.486;2023-05-07T06:42:32;57.58;;;40.17;;
53879;SDS011;39791;53.184;5.486;2023-05-07T06:44:57;51.75;;;40.58;;
53879;SDS011;39791;53.184;5.486;2023-05-07T06:47:23;50.67;;;37.53;;
53879;SDS011;39791;53.184;5.486;2023-05-07T06:49:48;52.03;;;42.10;;
53879;SDS011;39791;53.184;5.486;2023-05-07T06:52:14;50.78;;;38.10;;
53879;SDS011;39791;53.184;5.486;2023-05-07T06:54:40;50.80;;;39.35;;
53879;SDS011;39791;53.184;5.486;2023-05-07T06:57:05;52.90;;;39.50;;
53879;SDS011;39791;53.184;5.486;2023-05-07T06:59:32;54.50;;;41.80;;
53879;SDS011;39791;53.184;5.486;2023-05-07T07:01:57;55.25;;;43.75;;
53879;SDS011;39791;53.184;5.486;2023-05-07T07:04:23;51.30;;;42.00;;
53879;SDS011;39791;53.184;5.486;2023-05-07T07:06:49;53.40;;;40.78;;
53879;SDS011;39791;53.184;5.486;2023-05-07T07:09:16;47.10;;;37.50;;
53879;SDS011;39791;53.184;5.486;2023-05-07T07:11:42;52.72;;;42.72;;
53879;SDS011;39791;53.184;5.486;2023-05-07T07:14:07;50.05;;;40.35;;
53879;SDS011;39791;53.184;5.486;2023-05-07T07:16:33;50.85;;;41.28;;
53879;SDS011;39791;53.184;5.486;2023-05-07T07:18:59;49.65;;;38.47;;
53879;SDS011;39791;53.184;5.486;2023-05-07T07:21:24;47.55;;;36.53;;
53879;SDS011;39791;53.184;5.486;2023-05-07T07:23:50;48.55;;;37.25;;
53879;SDS011;39791;53.184;5.486;2023-05-07T07:26:17;45.60;;;37.92;;
53879;SDS011;39791;53.184;5.486;2023-05-07T07:28:45;50.80;;;40.55;;
53879;SDS011;39791;53.184;5.486;2023-05-07T07:31:11;47.92;;;38.10;;
53879;SDS011;39791;53.184;5.486;2023-05-07T07:33:37;46.33;;;35.83;;
53879;SDS011;39791;53.184;5.486;2023-05-07T07:36:05;49.75;;;41.00;;
53879;SDS011;39791;53.184;5.486;2023-05-07T07:38:31;43.55;;;35.45;;
53879;SDS011;39791;53.184;5.486;2023-05-07T07:40:57;45.25;;;34.45;;
53879;SDS011;39791;53.184;5.486;2023-05-07T07:43:22;46.83;;;37.10;;
53879;SDS011;39791;53.184;5.486;2023-05-07T07:45:49;43.83;;;32.83;;
53879;SDS011;39791;53.184;5.486;2023-05-07T07:48:14;42.97;;;34.67;;
53879;SDS011;39791;53.184;5.486;2023-05-07T07:50:40;43.35;;;35.72;;
53879;SDS011;39791;53.184;5.486;2023-05-07T07:53:05;44.92;;;36.65;;
53879;SDS011;39791;53.184;5.486;2023-05-07T07:55:31;47.50;;;35.38;;
53879;SDS011;39791;53.184;5.486;2023-05-07T07:57:57;42.55;;;35.85;;
53879;SDS011;39791;53.184;5.486;2023-05-07T08:00:22;42.78;;;34.95;;
53879;SDS011;39791;53.184;5.486;2023-05-07T08:02:48;39.17;;;33.58;;
53879;SDS011;39791;53.184;5.486;2023-05-07T08:05:14;42.80;;;33.72;;
53879;SDS011;39791;53.184;5.486;2023-05-07T08:07:40;39.78;;;33.65;;
53879;SDS011;39791;53.184;5.486;2023-05-07T08:10:05;44.00;;;34.53;;
53879;SDS011;39791;53.184;5.486;2023-05-07T08:12:31;37.95;;;32.25;;
53879;SDS011;39791;53.184;5.486;2023-05-07T08:14:57;39.35;;;30.75;;
53879;SDS011;39791;53.184;5.486;2023-05-07T08:17:22;37.25;;;31.98;;
53879;SDS011;39791;53.184;5.486;2023-05-07T08:19:48;34.97;;;28.33;;
53879;SDS011;39791;53.184;5.486;2023-05-07T08:22:14;39.08;;;31.95;;
53879;SDS011;39791;53.184;5.486;2023-05-07T08:24:39;37.30;;;31.52;;
53879;SDS011;39791;53.184;5.486;2023-05-07T08:27:05;32.88;;;27.27;;
53879;SDS011;39791;53.184;5.486;2023-05-07T08:29:30;34.97;;;28.17;;
53879;SDS011;39791;53.184;5.486;2023-05-07T08:31:56;32.30;;;26.75;;
53879;SDS011;39791;53.184;5.486;2023-05-07T08:34:22;32.20;;;26.65;;
53879;SDS011;39791;53.184;5.486;2023-05-07T08:36:47;30.25;;;26.65;;
53879;SDS011;39791;53.184;5.486;2023-05-07T08:39:13;31.10;;;26.77;;
53879;SDS011;39791;53.184;5.486;2023-05-07T08:41:45;35.95;;;29.08;;
53879;SDS011;39791;53.184;5.486;2023-05-07T08:44:14;29.88;;;26.05;;
53879;SDS011;39791;53.184;5.486;2023-05-07T08:46:41;30.27;;;26.08;;
53879;SDS011;39791;53.184;5.486;2023-05-07T08:49:07;29.92;;;26.42;;
53879;SDS011;39791;53.184;5.486;2023-05-07T08:51:33;27.83;;;24.45;;
53879;SDS011;39791;53.184;5.486;2023-05-07T08:54:00;29.23;;;24.30;;
53879;SDS011;39791;53.184;5.486;2023-05-07T08:56:26;31.63;;;27.05;;
53879;SDS011;39791;53.184;5.486;2023-05-07T08:58:52;31.15;;;25.17;;
53879;SDS011;39791;53.184;5.486;2023-05-07T09:01:21;29.15;;;25.98;;
53879;SDS011;39791;53.184;5.486;2023-05-07T09:03:47;30.10;;;25.98;;
53879;SDS011;39791;53.184;5.486;2023-05-07T09:06:13;27.33;;;24.35;;
53879;SDS011;39791;53.184;5.486;2023-05-07T09:08:39;28.38;;;25.38;;
53879;SDS011;39791;53.184;5.486;2023-05-07T09:11:04;28.30;;;23.10;;
53879;SDS011;39791;53.184;5.486;2023-05-07T09:13:30;24.05;;;21.15;;
53879;SDS011;39791;53.184;5.486;2023-05-07T09:15:56;29.15;;;24.33;;
53879;SDS011;39791;53.184;5.486;2023-05-07T09:18:23;28.83;;;24.23;;
53879;SDS011;39791;53.184;5.486;2023-05-07T09:20:50;30.38;;;24.63;;
53879;SDS011;39791;53.184;5.486;2023-05-07T09:23:16;27.90;;;22.63;;
53879;SDS011;39791;53.184;5.486;2023-05-07T09:25:41;29.20;;;23.95;;
53879;SDS011;39791;53.184;5.486;2023-05-07T09:28:07;28.05;;;25.05;;
53879;SDS011;39791;53.184;5.486;2023-05-07T09:30:35;29.92;;;24.25;;
53879;SDS011;39791;53.184;5.486;2023-05-07T09:33:01;29.35;;;26.00;;
53879;SDS011;39791;53.184;5.486;2023-05-07T09:35:29;25.25;;;22.08;;
53879;SDS011;39791;53.184;5.486;2023-05-07T09:37:55;28.40;;;24.13;;
53879;SDS011;39791;53.184;5.486;2023-05-07T09:42:52;29.92;;;22.80;;
53879;SDS011;39791;53.184;5.486;2023-05-07T09:45:25;27.15;;;22.48;;
53879;SDS011;39791;53.184;5.486;2023-05-07T09:47:53;26.77;;;22.60;;
53879;SDS011;39791;53.184;5.486;2023-05-07T09:50:22;27.23;;;24.13;;
53879;SDS011;39791;53.184;5.486;2023-05-07T09:52:54;28.50;;;25.17;;
53879;SDS011;39791;53.184;5.486;2023-05-07T09:55:20;27.30;;;24.10;;
53879;SDS011;39791;53.184;5.486;2023-05-07T09:57:49;28.83;;;25.67;;
53879;SDS011;39791;53.184;5.486;2023-05-07T10:00:15;27.35;;;23.30;;
53879;SDS011;39791;53.184;5.486;2023-05-07T10:02:44;25.45;;;22.27;;
53879;SDS011;39791;53.184;5.486;2023-05-07T10:05:14;29.77;;;26.20;;
53879;SDS011;39791;53.184;5.486;2023-05-07T10:07:40;29.10;;;25.77;;
53879;SDS011;39791;53.184;5.486;2023-05-07T10:10:07;28.98;;;24.65;;
53879;SDS011;39791;53.184;5.486;2023-05-07T10:12:34;30.60;;;26.25;;
53879;SDS011;39791;53.184;5.486;2023-05-07T10:15:12;28.23;;;24.40;;
53879;SDS011;39791;53.184;5.486;2023-05-07T10:17:39;28.58;;;23.90;;
53879;SDS011;39791;53.184;5.486;2023-05-07T10:20:05;27.75;;;24.20;;
53879;SDS011;39791;53.184;5.486;2023-05-07T10:22:41;30.38;;;23.27;;
53879;SDS011;39791;53.184;5.486;2023-05-07T10:25:14;28.77;;;24.65;;
53879;SDS011;39791;53.184;5.486;2023-05-07T10:27:46;32.05;;;25.35;;
53879;SDS011;39791;53.184;5.486;2023-05-07T10:30:27;27.27;;;23.70;;
53879;SDS011;39791;53.184;5.486;2023-05-07T10:33:15;26.20;;;23.33;;
53879;SDS011;39791;53.184;5.486;2023-05-07T10:35:45;28.83;;;25.33;;
53879;SDS011;39791;53.184;5.486;2023-05-07T10:38:12;29.58;;;26.38;;
53879;SDS011;39791;53.184;5.486;2023-05-07T10:40:38;30.00;;;25.38;;
53879;SDS011;39791;53.184;5.486;2023-05-07T10:43:05;30.88;;;24.42;;
53879;SDS011;39791;53.184;5.486;2023-05-07T10:45:31;28.67;;;23.77;;
53879;SDS011;39791;53.184;5.486;2023-05-07T10:48:13;31.40;;;26.05;;
53879;SDS011;39791;53.184;5.486;2023-05-07T10:50:42;29.38;;;23.73;;
53879;SDS011;39791;53.184;5.486;2023-05-07T10:53:20;27.05;;;21.27;;
53879;SDS011;39791;53.184;5.486;2023-05-07T10:56:23;30.50;;;26.88;;
53879;SDS011;39791;53.184;5.486;2023-05-07T10:58:43;31.60;;;25.30;;
53879;SDS011;39791;53.184;5.486;2023-05-07T11:01:09;31.50;;;26.02;;
53879;SDS011;39791;53.184;5.486;2023-05-07T11:03:37;31.95;;;26.08;;
53879;SDS011;39791;53.184;5.486;2023-05-07T11:06:39;31.00;;;26.88;;
53879;SDS011;39791;53.184;5.486;2023-05-07T11:09:05;31.77;;;26.38;;
53879;SDS011;39791;53.184;5.486;2023-05-07T11:11:49;29.85;;;23.35;;
53879;SDS011;39791;53.184;5.486;2023-05-07T11:17:05;31.42;;;27.23;;
53879;SDS011;39791;53.184;5.486;2023-05-07T11:19:47;32.35;;;26.05;;
53879;SDS011;39791;53.184;5.486;2023-05-07T11:25:09;32.47;;;27.17;;
53879;SDS011;39791;53.184;5.486;2023-05-07T11:27:36;32.38;;;28.90;;
53879;SDS011;39791;53.184;5.486;2023-05-07T11:30:01;29.45;;;25.88;;
53879;SDS011;39791;53.184;5.486;2023-05-07T11:32:28;30.70;;;27.40;;
53879;SDS011;39791;53.184;5.486;2023-05-07T11:34:55;30.50;;;27.15;;
53879;SDS011;39791;53.184;5.486;2023-05-07T11:37:22;30.20;;;25.73;;
53879;SDS011;39791;53.184;5.486;2023-05-07T11:39:49;33.10;;;26.13;;
53879;SDS011;39791;53.184;5.486;2023-05-07T11:42:27;29.55;;;24.65;;
53879;SDS011;39791;53.184;5.486;2023-05-07T11:44:57;29.48;;;26.27;;
53879;SDS011;39791;53.184;5.486;2023-05-07T11:47:23;28.73;;;25.38;;
53879;SDS011;39791;53.184;5.486;2023-05-07T11:49:51;32.53;;;27.95;;
53879;SDS011;39791;53.184;5.486;2023-05-07T11:52:18;31.73;;;28.25;;
53879;SDS011;39791;53.184;5.486;2023-05-07T11:54:55;30.83;;;26.50;;
53879;SDS011;39791;53.184;5.486;2023-05-07T11:57:25;30.13;;;26.83;;
53879;SDS011;39791;53.184;5.486;2023-05-07T11:59:55;29.80;;;26.58;;
53879;SDS011;39791;53.184;5.486;2023-05-07T12:02:21;30.23;;;26.23;;
53879;SDS011;39791;53.184;5.486;2023-05-07T12:04:46;29.45;;;25.85;;
53879;SDS011;39791;53.184;5.486;2023-05-07T12:07:15;31.48;;;26.20;;
53879;SDS011;39791;53.184;5.486;2023-05-07T12:09:44;30.15;;;25.77;;
53879;SDS011;39791;53.184;5.486;2023-05-07T12:12:11;31.70;;;27.33;;
53879;SDS011;39791;53.184;5.486;2023-05-07T12:14:41;34.03;;;28.27;;
53879;SDS011;39791;53.184;5.486;2023-05-07T12:17:08;28.40;;;25.30;;
53879;SDS011;39791;53.184;5.486;2023-05-07T12:19:35;28.25;;;23.15;;
53879;SDS011;39791;53.184;5.486;2023-05-07T12:22:05;31.23;;;27.77;;
53879;SDS011;39791;53.184;5.486;2023-05-07T12:24:48;30.42;;;27.13;;
53879;SDS011;39791;53.184;5.486;2023-05-07T12:27:15;27.92;;;24.30;;
53879;SDS011;39791;53.184;5.486;2023-05-07T12:29:48;28.90;;;25.38;;
53879;SDS011;39791;53.184;5.486;2023-05-07T12:32:16;27.00;;;24.02;;
53879;SDS011;39791;53.184;5.486;2023-05-07T12:34:46;29.20;;;23.33;;
53879;SDS011;39791;53.184;5.486;2023-05-07T12:37:14;29.45;;;23.92;;
53879;SDS011;39791;53.184;5.486;2023-05-07T12:39:49;30.23;;;24.80;;
53879;SDS011;39791;53.184;5.486;2023-05-07T12:42:36;29.30;;;25.02;;
53879;SDS011;39791;53.184;5.486;2023-05-07T12:47:44;26.83;;;23.48;;
53879;SDS011;39791;53.184;5.486;2023-05-07T12:50:11;27.08;;;24.10;;
53879;SDS011;39791;53.184;5.486;2023-05-07T12:52:37;27.77;;;23.30;;
53879;SDS011;39791;53.184;5.486;2023-05-07T12:55:06;27.60;;;24.67;;
53879;SDS011;39791;53.184;5.486;2023-05-07T12:57:39;29.25;;;24.27;;
53879;SDS011;39791;53.184;5.486;2023-05-07T13:00:06;25.90;;;23.20;;
53879;SDS011;39791;53.184;5.486;2023-05-07T13:02:38;28.50;;;24.85;;
53879;SDS011;39791;53.184;5.486;2023-05-07T13:05:05;25.95;;;22.73;;
53879;SDS011;39791;53.184;5.486;2023-05-07T13:07:32;25.02;;;22.33;;
53879;SDS011;39791;53.184;5.486;2023-05-07T13:09:57;27.05;;;22.33;;
53879;SDS011;39791;53.184;5.486;2023-05-07T13:12:23;26.77;;;22.15;;
53879;SDS011;39791;53.184;5.486;2023-05-07T13:14:48;26.13;;;23.42;;
53879;SDS011;39791;53.184;5.486;2023-05-07T13:17:14;24.42;;;20.20;;
53879;SDS011;39791;53.184;5.486;2023-05-07T13:19:39;28.08;;;24.38;;
53879;SDS011;39791;53.184;5.486;2023-05-07T13:22:05;28.58;;;23.00;;
53879;SDS011;39791;53.184;5.486;2023-05-07T13:24:30;28.20;;;24.60;;
53879;SDS011;39791;53.184;5.486;2023-05-07T13:26:56;24.40;;;21.48;;
53879;SDS011;39791;53.184;5.486;2023-05-07T13:29:21;23.45;;;20.55;;
53879;SDS011;39791;53.184;5.486;2023-05-07T13:31:53;22.67;;;18.50;;
53879;SDS011;39791;53.184;5.486;2023-05-07T13:34:19;27.80;;;19.35;;
53879;SDS011;39791;53.184;5.486;2023-05-07T13:36:45;23.52;;;19.45;;
53879;SDS011;39791;53.184;5.486;2023-05-07T13:39:10;22.23;;;19.73;;
53879;SDS011;39791;53.184;5.486;2023-05-07T13:41:36;21.60;;;17.98;;
53879;SDS011;39791;53.184;5.486;2023-05-07T13:44:01;23.15;;;20.70;;
53879;SDS011;39791;53.184;5.486;2023-05-07T13:46:27;24.02;;;19.35;;
53879;SDS011;39791;53.184;5.486;2023-05-07T13:48:54;20.05;;;17.90;;
53879;SDS011;39791;53.184;5.486;2023-05-07T13:51:20;24.35;;;19.42;;
53879;SDS011;39791;53.184;5.486;2023-05-07T13:53:46;23.23;;;19.02;;
53879;SDS011;39791;53.184;5.486;2023-05-07T13:56:12;23.35;;;18.80;;
53879;SDS011;39791;53.184;5.486;2023-05-07T13:58:39;21.85;;;19.55;;
53879;SDS011;39791;53.184;5.486;2023-05-07T14:01:04;23.40;;;20.52;;
53879;SDS011;39791;53.184;5.486;2023-05-07T14:03:30;23.65;;;20.67;;
53879;SDS011;39791;53.184;5.486;2023-05-07T14:05:57;23.67;;;19.98;;
53879;SDS011;39791;53.184;5.486;2023-05-07T14:08:24;22.50;;;19.42;;
53879;SDS011;39791;53.184;5.486;2023-05-07T14:10:51;22.85;;;20.45;;
53879;SDS011;39791;53.184;5.486;2023-05-07T14:13:17;19.98;;;17.80;;
53879;SDS011;39791;53.184;5.486;2023-05-07T14:15:42;22.75;;;19.52;;
53879;SDS011;39791;53.184;5.486;2023-05-07T14:18:11;22.35;;;19.92;;
53879;SDS011;39791;53.184;5.486;2023-05-07T14:20:37;24.25;;;19.60;;
53879;SDS011;39791;53.184;5.486;2023-05-07T14:23:03;22.58;;;19.80;;
53879;SDS011;39791;53.184;5.486;2023-05-07T14:25:29;22.20;;;19.55;;
53879;SDS011;39791;53.184;5.486;2023-05-07T14:27:54;24.83;;;19.15;;
53879;SDS011;39791;53.184;5.486;2023-05-07T14:30:20;24.10;;;19.55;;